Time;durP1;ratioP1;P1;durP2;ratioP2;P2;SDS_P1;SDS_P2;PMS_P1;PMS_P2;Temp;Humidity;BMP_temperature;BMP_pressure;BME280_temperature;BME280_humidity;BME280_pressure;Samples;Min_cycle;Max_cycle;Signal;HPM_P1;HPM_P2
2022/07/02 00:00:03;;;;;;;4.50;2.60;;;28.50;1.00;;;;;;5154865;27;20019;-52
2022/07/02 00:02:34;;;;;;;3.38;2.60;;;28.60;1.00;;;;;;5153449;27;20037;-53
2022/07/02 00:05:04;;;;;;;4.05;2.63;;;28.80;1.00;;;;;;5156945;27;20364;-50
2022/07/02 00:07:30;;;;;;;3.17;2.78;;;28.50;1.00;;;;;;5155164;27;20114;-55
2022/07/02 00:09:57;;;;;;;4.88;2.60;;;28.50;1.00;;;;;;5147139;27;20023;-56
2022/07/02 00:12:27;;;;;;;4.25;3.22;;;28.60;1.00;;;;;;5150401;27;20047;-54
2022/07/02 00:14:56;;;;;;;4.85;2.35;;;28.40;1.00;;;;;;5155777;27;20045;-51
2022/07/02 00:17:23;;;;;;;4.65;3.03;;;28.40;1.00;;;;;;5155622;27;20049;-53
2022/07/02 00:19:50;;;;;;;3.60;2.55;;;28.60;1.00;;;;;;5156437;27;20586;-55
2022/07/02 00:22:16;;;;;;;4.38;2.60;;;28.40;1.00;;;;;;5156469;27;20165;-55
2022/07/02 00:24:43;;;;;;;6.95;3.20;;;28.20;1.00;;;;;;5134762;27;20122;-55
2022/07/02 00:27:10;;;;;;;5.43;3.33;;;28.50;1.00;;;;;;5136847;27;20027;-55
2022/07/02 00:30:00;;;;;;;3.17;2.97;;;28.50;1.00;;;;;;5152604;27;20387;-56
2022/07/02 00:32:28;;;;;;;5.80;3.20;;;28.00;1.00;;;;;;5143365;27;20416;-55
2022/07/02 00:34:55;;;;;;;3.83;3.50;;;28.10;1.00;;;;;;5156061;27;20022;-54
2022/07/02 00:37:22;;;;;;;3.25;2.90;;;27.80;1.00;;;;;;5154980;27;20031;-54
2022/07/02 00:39:48;;;;;;;5.25;3.83;;;28.00;1.00;;;;;;5139911;27;20030;-52
2022/07/02 00:42:14;;;;;;;4.18;3.33;;;27.80;1.00;;;;;;5153627;27;20022;-55
2022/07/02 00:44:41;;;;;;;6.53;3.40;;;27.90;1.00;;;;;;5138593;27;20066;-56
2022/07/02 00:47:08;;;;;;;5.75;3.20;;;28.00;1.00;;;;;;5154648;27;20118;-56
2022/07/02 00:49:36;;;;;;;4.97;3.20;;;27.90;1.00;;;;;;5151751;27;20338;-55
2022/07/02 00:52:02;;;;;;;4.55;3.35;;;28.30;1.00;;;;;;5145187;27;20031;-54
2022/07/02 00:54:29;;;;;;;4.10;2.83;;;28.10;1.00;;;;;;5139410;27;20038;-56
2022/07/02 00:56:55;;;;;;;6.20;3.72;;;28.00;1.00;;;;;;5145442;27;20027;-50
2022/07/02 00:59:25;;;;;;;4.60;2.85;;;28.10;1.00;;;;;;5147778;27;20022;-55
2022/07/02 01:01:51;;;;;;;3.17;2.95;;;28.00;1.00;;;;;;5147126;27;20042;-52
2022/07/02 01:04:17;;;;;;;6.05;3.42;;;28.10;1.00;;;;;;5155432;27;20019;-54
2022/07/02 01:06:44;;;;;;;5.13;3.17;;;28.10;1.00;;;;;;5147401;27;20023;-55
2022/07/02 01:11:59;;;;;;;4.70;3.25;;;28.00;1.00;;;;;;5152417;27;20548;-50
2022/07/02 01:14:26;;;;;;;4.03;3.55;;;28.10;1.00;;;;;;5155482;27;20034;-49
2022/07/02 01:16:52;;;;;;;4.65;3.53;;;27.90;1.00;;;;;;5154101;27;20448;-52
2022/07/02 01:19:19;;;;;;;5.85;3.88;;;28.20;1.00;;;;;;5154252;27;20508;-54
2022/07/02 01:22:24;;;;;;;3.97;3.17;;;28.10;1.00;;;;;;5153302;27;20353;-54
2022/07/02 01:24:51;;;;;;;3.80;3.42;;;28.00;1.00;;;;;;5133737;27;20042;-55
2022/07/02 01:27:18;;;;;;;3.85;3.13;;;28.00;1.00;;;;;;5139137;27;20027;-54
2022/07/02 01:29:44;;;;;;;5.50;3.28;;;28.30;1.00;;;;;;5154877;27;20015;-56
2022/07/02 01:32:10;;;;;;;5.20;3.30;;;28.30;1.00;;;;;;5143936;27;20508;-55
2022/07/02 01:34:40;;;;;;;5.03;2.65;;;28.20;1.00;;;;;;5146618;27;20460;-55
2022/07/02 01:37:14;;;;;;;5.75;3.63;;;28.00;1.00;;;;;;5153621;27;20022;-54
2022/07/02 01:39:41;;;;;;;5.55;3.40;;;28.10;1.00;;;;;;5140340;27;20015;-54
2022/07/02 01:42:08;;;;;;;5.45;3.05;;;28.30;1.00;;;;;;5150353;27;20053;-53
2022/07/02 01:44:34;;;;;;;4.18;3.50;;;28.10;1.00;;;;;;5154607;27;20027;-56
2022/07/02 01:47:03;;;;;;;3.95;3.58;;;28.30;1.00;;;;;;5153469;27;20075;-56
2022/07/02 01:49:29;;;;;;;6.05;3.55;;;28.10;1.00;;;;;;5154614;27;20056;-54
2022/07/02 01:51:54;;;;;;;5.85;3.78;;;28.10;1.00;;;;;;5152845;27;20096;-55
2022/07/02 01:54:20;;;;;;;4.97;3.40;;;28.10;1.00;;;;;;5154234;27;20391;-54
2022/07/02 01:56:46;;;;;;;7.78;3.53;;;28.20;1.00;;;;;;5144683;27;20113;-54
2022/07/02 01:59:13;;;;;;;3.25;3.05;;;28.20;1.00;;;;;;5153446;27;20051;-52
2022/07/02 02:01:42;;;;;;;6.05;3.65;;;27.90;1.00;;;;;;5142913;27;20043;-56
2022/07/02 02:04:08;;;;;;;5.55;3.35;;;28.10;1.00;;;;;;5154100;27;20015;-56
2022/07/02 02:06:34;;;;;;;7.15;3.85;;;28.00;1.00;;;;;;5152942;27;20026;-56
2022/07/02 02:08:59;;;;;;;5.32;4.00;;;28.00;1.00;;;;;;5150813;27;20109;-55
2022/07/02 02:11:25;;;;;;;3.97;3.42;;;28.00;1.00;;;;;;5147351;27;20481;-51
2022/07/02 02:13:51;;;;;;;4.95;3.42;;;27.90;1.00;;;;;;5135722;27;20019;-51
2022/07/02 02:16:16;;;;;;;5.72;3.95;;;28.30;1.00;;;;;;5146604;27;20023;-54
2022/07/02 02:18:42;;;;;;;5.32;3.20;;;28.10;1.00;;;;;;5148055;27;20023;-54
2022/07/02 02:21:08;;;;;;;5.13;3.67;;;28.20;1.00;;;;;;5145512;27;20027;-54
2022/07/02 02:23:34;;;;;;;5.47;4.13;;;28.00;1.00;;;;;;5153771;27;20022;-52
2022/07/02 02:25:59;;;;;;;3.97;3.55;;;28.30;1.00;;;;;;5152684;27;20035;-52
2022/07/02 02:28:25;;;;;;;3.85;3.55;;;28.00;1.00;;;;;;5153595;27;20019;-53
2022/07/02 02:30:50;;;;;;;8.02;3.53;;;28.10;1.00;;;;;;5151757;27;20117;-54
2022/07/02 02:33:16;;;;;;;4.13;3.72;;;28.20;1.00;;;;;;5153702;27;20037;-53
2022/07/02 02:35:41;;;;;;;3.97;3.58;;;27.90;1.00;;;;;;5152486;27;20329;-51
2022/07/02 02:38:07;;;;;;;6.75;3.95;;;28.30;1.00;;;;;;5151578;27;20049;-53
2022/07/02 02:40:33;;;;;;;4.60;4.20;;;28.10;1.00;;;;;;5141931;27;20325;-51
2022/07/02 02:42:58;;;;;;;6.68;4.03;;;28.00;1.00;;;;;;5153268;27;20487;-53
2022/07/02 02:45:24;;;;;;;5.32;3.90;;;28.30;1.00;;;;;;5152282;27;20094;-52
2022/07/02 02:47:49;;;;;;;4.70;4.28;;;28.30;1.00;;;;;;5153263;27;20441;-49
2022/07/02 02:50:15;;;;;;;5.00;4.20;;;28.20;1.00;;;;;;5151818;27;20031;-51
2022/07/02 02:52:41;;;;;;;3.88;3.58;;;28.30;1.00;;;;;;5153125;27;20061;-51
2022/07/02 02:55:07;;;;;;;5.65;3.95;;;28.10;1.00;;;;;;5150496;27;20373;-49
2022/07/02 02:57:32;;;;;;;6.68;3.63;;;28.30;1.00;;;;;;5153584;27;20105;-50
2022/07/02 02:59:58;;;;;;;4.40;3.13;;;28.10;1.00;;;;;;5152531;27;20417;-54
2022/07/02 03:02:24;;;;;;;4.25;3.85;;;28.40;1.00;;;;;;5152887;27;20352;-50
2022/07/02 03:04:49;;;;;;;4.53;4.13;;;28.20;1.00;;;;;;5151910;27;20345;-55
2022/07/02 03:07:15;;;;;;;7.07;3.67;;;28.30;1.00;;;;;;5145912;27;20053;-55
2022/07/02 03:09:40;;;;;;;3.58;3.28;;;28.30;1.00;;;;;;5149214;27;20026;-52
2022/07/02 03:12:07;;;;;;;5.10;3.30;;;28.30;1.00;;;;;;5150985;27;20104;-54
2022/07/02 03:14:32;;;;;;;6.05;3.53;;;28.30;1.00;;;;;;5147495;27;20439;-55
2022/07/02 03:16:58;;;;;;;5.82;3.38;;;28.10;1.00;;;;;;5152235;27;20109;-52
2022/07/02 03:19:23;;;;;;;7.22;4.00;;;28.40;1.00;;;;;;5150915;27;20014;-53
2022/07/02 03:21:49;;;;;;;5.28;3.72;;;28.10;1.00;;;;;;5151100;27;20421;-55
2022/07/02 03:24:15;;;;;;;4.50;3.05;;;28.10;1.00;;;;;;5143885;27;20023;-54
2022/07/02 03:26:41;;;;;;;5.95;4.40;;;28.20;1.00;;;;;;5151816;27;20035;-50
2022/07/02 03:29:07;;;;;;;6.63;4.03;;;28.00;1.00;;;;;;5152704;27;20015;-54
2022/07/02 03:31:33;;;;;;;4.85;3.65;;;28.10;1.00;;;;;;5149045;27;20582;-52
2022/07/02 03:33:58;;;;;;;5.20;3.85;;;28.30;1.00;;;;;;5135077;27;20034;-52
2022/07/02 03:36:24;;;;;;;7.35;3.60;;;28.10;1.00;;;;;;5146415;27;20023;-53
2022/07/02 03:38:50;;;;;;;4.75;3.65;;;28.10;1.00;;;;;;5143363;27;20471;-52
2022/07/02 03:41:16;;;;;;;5.28;3.58;;;28.40;1.00;;;;;;5150675;27;20018;-55
2022/07/02 03:43:42;;;;;;;6.13;4.25;;;28.20;1.00;;;;;;5137586;27;20027;-50
2022/07/02 03:46:07;;;;;;;5.10;4.20;;;28.20;1.00;;;;;;5144114;27;20034;-52
2022/07/02 03:48:33;;;;;;;4.88;3.90;;;28.00;1.00;;;;;;5152557;27;20019;-50
2022/07/02 03:50:58;;;;;;;5.93;4.15;;;28.00;1.00;;;;;;5151711;27;20034;-54
2022/07/02 03:53:24;;;;;;;5.60;3.88;;;28.00;1.00;;;;;;5148179;27;20123;-53
2022/07/02 03:55:50;;;;;;;8.43;4.22;;;28.00;1.00;;;;;;5132547;27;20441;-55
2022/07/02 03:58:16;;;;;;;5.30;3.97;;;28.00;1.00;;;;;;5148835;27;20037;-56
2022/07/02 04:00:42;;;;;;;5.97;3.83;;;27.90;1.00;;;;;;5151150;27;20094;-54
2022/07/02 04:03:07;;;;;;;4.22;3.80;;;28.10;1.00;;;;;;5152684;27;20113;-52
2022/07/02 04:05:33;;;;;;;7.40;3.90;;;27.90;1.00;;;;;;5151398;27;20050;-55
2022/07/02 04:07:58;;;;;;;7.60;4.32;;;27.90;1.00;;;;;;5139833;27;20042;-54
2022/07/02 04:10:24;;;;;;;5.88;4.22;;;28.20;1.00;;;;;;5149702;27;20022;-54
2022/07/02 04:12:50;;;;;;;5.70;4.07;;;28.00;1.00;;;;;;5152234;27;20051;-55
2022/07/02 04:15:15;;;;;;;4.60;4.00;;;28.20;1.00;;;;;;5151290;27;20023;-56
2022/07/02 04:17:41;;;;;;;7.00;4.20;;;28.10;1.00;;;;;;5152840;27;20068;-53
2022/07/02 04:20:07;;;;;;;5.25;3.53;;;27.90;1.00;;;;;;5155295;27;20481;-49
2022/07/02 04:22:33;;;;;;;4.55;3.53;;;28.20;1.00;;;;;;5156227;27;20019;-53
2022/07/02 04:24:58;;;;;;;5.03;3.58;;;28.20;1.00;;;;;;5155398;27;20515;-56
2022/07/02 04:27:24;;;;;;;5.45;3.75;;;28.20;1.00;;;;;;5152432;27;20375;-58
2022/07/02 04:29:50;;;;;;;5.85;4.30;;;28.30;1.00;;;;;;5117041;27;20030;-55
2022/07/02 04:32:15;;;;;;;5.22;3.50;;;28.30;1.00;;;;;;5154025;27;20144;-56
2022/07/02 04:34:41;;;;;;;6.20;3.35;;;28.10;1.00;;;;;;5155126;27;20027;-55
2022/07/02 04:37:07;;;;;;;5.35;3.88;;;28.10;1.00;;;;;;5155213;27;20554;-56
2022/07/02 04:39:32;;;;;;;4.60;3.72;;;28.00;1.00;;;;;;5155806;27;20018;-52
2022/07/02 04:41:58;;;;;;;3.97;3.47;;;27.90;1.00;;;;;;5154708;27;20063;-50
2022/07/02 04:44:24;;;;;;;4.35;3.25;;;28.00;1.00;;;;;;5155988;27;20015;-50
2022/07/02 04:46:50;;;;;;;5.28;3.75;;;27.90;1.00;;;;;;5155033;27;20035;-50
2022/07/02 04:49:16;;;;;;;5.30;3.83;;;28.20;1.00;;;;;;5154405;27;20090;-52
2022/07/02 04:51:42;;;;;;;4.85;3.55;;;28.20;1.00;;;;;;5154714;27;20043;-54
2022/07/02 04:54:07;;;;;;;4.97;3.40;;;28.00;1.00;;;;;;5155670;27;20026;-52
2022/07/02 04:56:33;;;;;;;7.57;3.42;;;28.10;1.00;;;;;;5154207;27;20107;-52
2022/07/02 04:58:59;;;;;;;3.88;3.10;;;28.20;1.00;;;;;;5142588;27;20026;-55
2022/07/02 05:01:24;;;;;;;5.40;3.30;;;28.30;1.00;;;;;;5151764;27;20343;-50
2022/07/02 05:03:51;;;;;;;4.50;3.40;;;28.00;1.00;;;;;;5154704;27;20378;-53
2022/07/02 05:06:18;;;;;;;5.65;3.00;;;27.90;1.00;;;;;;5154229;27;20018;-53
2022/07/02 05:08:44;;;;;;;4.68;3.20;;;28.00;1.00;;;;;;5155419;27;20030;-52
2022/07/02 05:11:09;;;;;;;5.68;3.38;;;28.20;1.00;;;;;;5154060;27;20042;-52
2022/07/02 05:13:35;;;;;;;3.63;2.65;;;27.90;1.00;;;;;;5154988;27;20037;-52
2022/07/02 05:16:00;;;;;;;5.57;4.05;;;28.10;1.00;;;;;;5141986;27;20488;-54
2022/07/02 05:18:26;;;;;;;3.72;3.28;;;27.80;1.00;;;;;;5139354;27;20027;-55
2022/07/02 05:20:51;;;;;;;4.38;3.28;;;28.20;1.00;;;;;;5151818;27;20481;-52
2022/07/02 05:23:17;;;;;;;3.58;3.00;;;28.20;1.00;;;;;;5151747;27;20031;-53
2022/07/02 05:25:43;;;;;;;4.55;3.13;;;28.00;1.00;;;;;;5142821;27;20375;-54
2022/07/02 05:28:08;;;;;;;4.97;3.25;;;28.00;1.00;;;;;;5154973;27;20484;-54
2022/07/02 05:30:34;;;;;;;3.85;3.55;;;27.90;1.00;;;;;;5152752;27;20038;-52
2022/07/02 05:33:00;;;;;;;7.15;3.58;;;27.90;1.00;;;;;;5154044;27;20066;-51
2022/07/02 05:35:25;;;;;;;6.70;3.17;;;28.00;1.00;;;;;;5153596;27;20133;-52
2022/07/02 05:37:51;;;;;;;4.93;3.17;;;28.10;1.00;;;;;;5133148;27;20027;-56
2022/07/02 05:40:16;;;;;;;5.78;2.95;;;28.10;1.00;;;;;;5144510;27;20454;-56
2022/07/02 05:42:42;;;;;;;5.38;3.10;;;28.20;1.00;;;;;;5154663;27;20097;-53
2022/07/02 05:45:08;;;;;;;5.57;3.22;;;28.40;1.00;;;;;;5153882;27;20038;-51
2022/07/02 05:47:33;;;;;;;4.82;3.42;;;28.30;1.00;;;;;;5138139;27;20052;-53
2022/07/02 05:49:59;;;;;;;6.75;3.33;;;28.40;1.00;;;;;;5154486;27;20031;-54
2022/07/02 05:52:25;;;;;;;5.15;3.53;;;28.50;1.00;;;;;;5153532;27;20087;-54
2022/07/02 05:54:50;;;;;;;7.15;2.67;;;28.50;1.00;;;;;;5154291;27;20027;-56
2022/07/02 05:57:16;;;;;;;5.63;3.30;;;28.50;1.00;;;;;;5153407;27;20113;-54
2022/07/02 05:59:41;;;;;;;4.57;3.40;;;28.60;1.00;;;;;;5153006;27;20098;-54
2022/07/02 06:02:07;;;;;;;4.47;3.40;;;28.40;1.00;;;;;;5154361;27;20433;-54
2022/07/02 06:04:33;;;;;;;5.13;3.22;;;28.80;1.00;;;;;;5153051;27;20174;-52
2022/07/02 06:09:44;;;;;;;4.82;3.28;;;28.60;1.00;;;;;;5153278;27;20041;-50
2022/07/02 06:12:10;;;;;;;4.60;3.25;;;28.80;1.00;;;;;;5153927;27;20047;-54
2022/07/02 06:14:35;;;;;;;5.72;3.47;;;28.50;1.00;;;;;;5152234;27;20093;-55
2022/07/02 06:17:01;;;;;;;5.55;3.55;;;28.50;1.00;;;;;;5146446;27;20368;-51
2022/07/02 06:19:26;;;;;;;4.55;3.20;;;28.60;1.00;;;;;;5144236;27;20023;-53
2022/07/02 06:21:52;;;;;;;4.32;2.97;;;28.50;1.00;;;;;;5153808;27;20472;-56
2022/07/02 06:24:18;;;;;;;3.35;3.03;;;28.40;1.00;;;;;;5152707;27;20158;-51
2022/07/02 06:26:44;;;;;;;5.47;3.10;;;28.80;1.00;;;;;;5141472;27;20071;-53
2022/07/02 06:29:09;;;;;;;4.28;3.30;;;29.00;1.00;;;;;;5149356;27;20105;-54
2022/07/02 06:31:36;;;;;;;5.65;3.05;;;28.90;1.00;;;;;;5149106;27;20034;-53
2022/07/02 06:34:02;;;;;;;5.43;3.33;;;28.70;1.00;;;;;;5153376;27;20014;-53
2022/07/02 06:36:28;;;;;;;5.30;3.22;;;28.70;1.00;;;;;;5148232;27;20019;-54
2022/07/02 06:38:54;;;;;;;4.63;2.90;;;28.80;1.00;;;;;;5153604;27;20027;-56
2022/07/02 06:44:05;;;;;;;5.60;3.13;;;28.50;1.00;;;;;;5152936;27;20367;-53
2022/07/02 06:46:31;;;;;;;4.82;3.20;;;29.00;1.00;;;;;;5147176;27;20118;-55
2022/07/02 06:48:56;;;;;;;4.28;3.42;;;28.90;1.00;;;;;;5153319;27;20050;-52
2022/07/02 06:51:22;;;;;;;4.78;3.28;;;29.00;1.00;;;;;;5152281;27;20046;-53
2022/07/02 06:53:48;;;;;;;6.10;3.45;;;29.00;1.00;;;;;;5150515;27;20014;-53
2022/07/02 06:56:14;;;;;;;6.05;3.80;;;29.00;1.00;;;;;;5143944;27;20038;-51
2022/07/02 06:58:39;;;;;;;4.60;3.60;;;29.20;1.00;;;;;;5151133;27;20030;-53
2022/07/02 07:01:05;;;;;;;4.80;3.45;;;29.40;1.00;;;;;;5144594;27;20442;-53
2022/07/02 07:03:30;;;;;;;7.72;3.83;;;29.30;1.00;;;;;;5150372;27;20038;-54
2022/07/02 07:05:56;;;;;;;4.72;4.05;;;29.10;1.00;;;;;;5153081;27;20427;-53
2022/07/02 07:08:22;;;;;;;5.70;3.45;;;29.00;1.00;;;;;;5130649;27;20356;-53
2022/07/02 07:10:47;;;;;;;5.18;4.13;;;29.30;1.00;;;;;;5142626;27;20019;-55
2022/07/02 07:13:13;;;;;;;7.78;4.20;;;29.00;1.00;;;;;;5140538;27;20481;-51
2022/07/02 07:15:38;;;;;;;7.50;3.67;;;29.10;1.00;;;;;;5149388;27;20098;-51
2022/07/02 07:18:04;;;;;;;6.22;3.60;;;29.10;1.00;;;;;;5152031;27;20147;-52
2022/07/02 07:20:31;;;;;;;8.35;4.20;;;29.20;1.00;;;;;;5138794;27;20560;-56
2022/07/02 07:22:56;;;;;;;11.48;4.50;;;29.00;1.00;;;;;;5148125;27;20030;-54
2022/07/02 07:25:23;;;;;;;4.60;3.92;;;29.00;1.00;;;;;;5152820;27;20387;-56
2022/07/02 07:27:48;;;;;;;5.68;4.03;;;29.00;1.00;;;;;;5150602;27;20479;-56
2022/07/02 07:30:15;;;;;;;5.00;3.50;;;28.80;1.00;;;;;;5152780;27;20349;-53
2022/07/02 07:32:41;;;;;;;3.85;3.47;;;28.90;1.00;;;;;;5141647;27;20488;-54
2022/07/02 07:35:07;;;;;;;4.57;4.07;;;29.00;1.00;;;;;;5152827;27;20018;-50
2022/07/02 07:37:35;;;;;;;5.10;3.92;;;29.10;1.00;;;;;;5141497;27;20024;-52
2022/07/02 07:40:02;;;;;;;7.00;3.88;;;28.90;1.00;;;;;;5137866;27;20452;-55
2022/07/02 07:42:28;;;;;;;6.40;3.88;;;29.00;1.00;;;;;;5149523;27;20084;-52
2022/07/02 07:44:54;;;;;;;7.35;4.00;;;29.20;1.00;;;;;;5143324;27;20453;-53
2022/07/02 07:47:19;;;;;;;4.57;3.83;;;29.30;1.00;;;;;;5144854;27;20031;-55
2022/07/02 07:49:45;;;;;;;6.97;4.22;;;29.00;1.00;;;;;;5152592;27;20019;-55
2022/07/02 07:52:11;;;;;;;4.90;3.65;;;29.20;1.00;;;;;;5150881;27;20085;-54
2022/07/02 07:54:37;;;;;;;5.93;3.97;;;29.10;1.00;;;;;;5142025;27;20019;-54
2022/07/02 07:57:04;;;;;;;9.75;4.22;;;29.30;1.00;;;;;;5154849;27;20029;-54
2022/07/02 07:59:29;;;;;;;9.07;4.00;;;29.30;1.00;;;;;;5154128;27;20019;-55
2022/07/02 08:01:55;;;;;;;9.02;3.85;;;29.30;1.00;;;;;;5156661;27;20396;-50
2022/07/02 08:04:21;;;;;;;6.68;4.93;;;29.30;1.00;;;;;;5155451;27;20031;-54
2022/07/02 08:06:46;;;;;;;5.82;3.67;;;29.30;1.00;;;;;;5156380;27;20034;-52
2022/07/02 08:09:12;;;;;;;6.45;4.15;;;29.30;1.00;;;;;;5155326;27;20023;-56
2022/07/02 08:11:37;;;;;;;5.05;4.30;;;29.50;1.00;;;;;;5156328;27;20424;-51
2022/07/02 08:14:04;;;;;;;10.50;4.25;;;29.40;1.00;;;;;;5155446;27;20031;-54
2022/07/02 08:16:31;;;;;;;5.05;3.95;;;29.30;1.00;;;;;;5156472;27;20015;-53
2022/07/02 08:18:56;;;;;;;10.02;4.10;;;29.50;1.00;;;;;;5140346;27;20019;-55
2022/07/02 08:21:22;;;;;;;10.50;5.35;;;29.50;1.00;;;;;;5155205;27;20041;-55
2022/07/02 08:23:48;;;;;;;7.10;4.78;;;29.40;1.00;;;;;;5155086;27;20031;-53
2022/07/02 08:26:13;;;;;;;7.85;4.35;;;29.50;1.00;;;;;;5156240;27;20042;-54
2022/07/02 08:28:39;;;;;;;6.50;4.68;;;29.50;1.00;;;;;;5155364;27;20111;-55
2022/07/02 08:31:04;;;;;;;8.00;4.43;;;29.50;1.00;;;;;;5156072;27;20019;-53
2022/07/02 08:33:30;;;;;;;4.70;4.20;;;29.60;1.00;;;;;;5154805;27;20043;-54
2022/07/02 08:35:56;;;;;;;7.00;4.85;;;29.60;1.00;;;;;;5155841;27;20049;-54
2022/07/02 08:38:22;;;;;;;6.43;4.90;;;29.90;1.00;;;;;;5154133;27;20026;-53
2022/07/02 08:40:48;;;;;;;6.47;4.32;;;29.80;1.00;;;;;;5156059;27;20184;-50
2022/07/02 08:43:16;;;;;;;6.68;4.53;;;29.80;1.00;;;;;;5154906;27;20030;-54
2022/07/02 08:45:43;;;;;;;6.93;4.80;;;30.10;1.00;;;;;;5155839;27;20294;-53
2022/07/02 08:48:12;;;;;;;6.82;5.15;;;30.00;1.00;;;;;;5153523;27;20042;-55
2022/07/02 08:50:39;;;;;;;9.75;5.75;;;29.80;1.00;;;;;;5153411;27;20484;-54
2022/07/02 08:53:05;;;;;;;10.77;5.35;;;29.90;1.00;;;;;;5154500;27;20372;-54
2022/07/02 08:55:35;;;;;;;12.45;5.65;;;30.20;1.00;;;;;;5155447;27;20040;-55
2022/07/02 08:58:02;;;;;;;8.57;5.00;;;30.10;1.00;;;;;;5154761;27;20034;-53
2022/07/02 09:00:28;;;;;;;7.13;5.75;;;30.10;1.00;;;;;;5155260;27;20393;-54
2022/07/02 09:02:56;;;;;;;8.32;6.50;;;30.10;1.00;;;;;;5154679;27;20468;-52
2022/07/02 09:05:25;;;;;;;8.18;5.82;;;30.20;1.00;;;;;;5154239;27;21442;-56
2022/07/02 09:07:51;;;;;;;9.02;5.90;;;30.10;1.00;;;;;;5154159;27;20026;-52
2022/07/02 09:10:20;;;;;;;12.93;5.43;;;30.30;1.00;;;;;;5152314;27;20480;-54
2022/07/02 09:12:47;;;;;;;11.48;5.68;;;30.30;1.00;;;;;;5142732;27;20452;-55
2022/07/02 09:15:15;;;;;;;8.05;5.32;;;30.20;1.00;;;;;;5154923;27;20070;-55
2022/07/02 09:17:42;;;;;;;10.77;5.72;;;30.30;1.00;;;;;;5145530;27;20392;-55
2022/07/02 09:20:10;;;;;;;8.93;6.95;;;30.20;1.00;;;;;;5147785;27;20018;-51
2022/07/02 09:22:40;;;;;;;9.18;6.82;;;30.50;1.00;;;;;;5139694;27;20372;-55
2022/07/02 09:25:17;;;;;;;7.05;6.20;;;30.30;1.00;;;;;;5147951;27;20023;-52
2022/07/02 09:27:45;;;;;;;6.65;5.75;;;30.50;1.00;;;;;;5133889;27;20134;-53
2022/07/02 09:30:14;;;;;;;11.25;6.78;;;30.60;1.00;;;;;;5154932;27;20018;-51
2022/07/02 09:32:45;;;;;;;5.97;5.38;;;30.50;1.00;;;;;;5153602;27;20042;-51
2022/07/02 09:35:23;;;;;;;8.40;6.60;;;30.70;1.00;;;;;;5146508;27;20206;-55
2022/07/02 09:37:50;;;;;;;8.30;6.88;;;30.60;1.00;;;;;;5153799;27;20050;-53
2022/07/02 09:40:17;;;;;;;10.90;7.95;;;30.50;1.00;;;;;;5154631;27;20364;-54
2022/07/02 09:42:47;;;;;;;10.95;6.65;;;30.60;1.00;;;;;;5154032;27;20019;-52
2022/07/02 09:45:15;;;;;;;8.57;6.57;;;30.70;1.00;;;;;;5154289;27;20033;-54
2022/07/02 09:47:48;;;;;;;10.50;6.32;;;30.70;1.00;;;;;;5152276;27;20049;-53
2022/07/02 09:50:16;;;;;;;6.35;4.85;;;30.60;1.00;;;;;;5154337;27;20054;-59
2022/07/02 09:52:53;;;;;;;10.70;8.30;;;30.60;1.00;;;;;;5147559;27;20027;-61
2022/07/02 09:55:25;;;;;;;8.27;6.28;;;30.70;1.00;;;;;;5145849;27;20361;-60
2022/07/02 09:57:56;;;;;;;6.95;5.43;;;30.60;1.00;;;;;;5145478;27;20031;-61
2022/07/02 10:00:23;;;;;;;8.32;6.90;;;30.80;1.00;;;;;;5148122;27;20045;-59
2022/07/02 10:02:51;;;;;;;32.10;8.38;;;30.60;1.00;;;;;;5151379;27;20015;-55
2022/07/02 10:05:26;;;;;;;8.38;7.50;;;30.70;1.00;;;;;;5149874;27;20019;-60
2022/07/02 10:07:53;;;;;;;9.30;7.20;;;30.70;1.00;;;;;;5152253;27;20447;-60
2022/07/02 10:10:24;;;;;;;12.40;8.65;;;31.00;1.00;;;;;;5134964;27;20469;-60
2022/07/02 10:12:51;;;;;;;9.88;7.25;;;31.10;1.00;;;;;;5144492;27;20088;-60
2022/07/02 10:15:22;;;;;;;11.77;6.50;;;31.10;1.00;;;;;;5152941;27;20071;-60
2022/07/02 10:17:50;;;;;;;14.98;8.27;;;30.90;1.00;;;;;;5153940;27;20026;-59
2022/07/02 10:20:17;;;;;;;15.27;7.70;;;31.20;1.00;;;;;;5152737;27;20026;-60
2022/07/02 10:22:42;;;;;;;18.05;8.38;;;31.10;1.00;;;;;;5153905;27;20476;-59
2022/07/02 10:25:09;;;;;;;9.90;6.63;;;31.00;1.00;;;;;;5152606;27;20038;-55
2022/07/02 10:27:35;;;;;;;11.77;6.57;;;31.10;1.00;;;;;;5153754;27;20023;-50
2022/07/02 10:30:02;;;;;;;9.02;6.47;;;31.20;1.00;;;;;;5152443;27;20420;-66
2022/07/02 10:32:46;;;;;;;7.05;5.13;;;31.10;1.00;;;;;;5153520;27;20034;-57
2022/07/02 10:35:17;;;;;;;6.22;5.55;;;31.20;1.00;;;;;;5151896;27;20478;-55
2022/07/02 10:37:43;;;;;;;9.90;6.25;;;31.30;1.00;;;;;;5138111;27;20072;-56
2022/07/02 10:40:10;;;;;;;7.05;5.70;;;31.50;1.00;;;;;;5142703;27;20029;-54
2022/07/02 10:42:38;;;;;;;8.25;6.43;;;31.30;1.00;;;;;;5141743;27;20125;-57
2022/07/02 10:45:17;;;;;;;6.15;5.55;;;31.40;1.00;;;;;;5147130;27;20027;-55
2022/07/02 10:48:12;;;;;;;7.30;5.55;;;31.30;1.00;;;;;;5141692;27;20015;-56
2022/07/02 10:50:38;;;;;;;5.78;4.47;;;31.40;1.00;;;;;;5134231;27;20046;-53
2022/07/02 10:53:20;;;;;;;5.38;4.57;;;31.30;1.00;;;;;;5152037;27;20041;-56
2022/07/02 10:55:55;;;;;;;7.15;4.90;;;31.70;1.00;;;;;;5153478;27;20023;-57
2022/07/02 10:58:25;;;;;;;4.65;4.20;;;31.60;1.00;;;;;;5152308;27;20023;-55
2022/07/02 11:00:51;;;;;;;6.30;4.88;;;31.50;1.00;;;;;;5153190;27;20026;-56
2022/07/02 11:03:18;;;;;;;7.68;5.43;;;31.60;1.00;;;;;;5142957;27;20031;-55
2022/07/02 11:05:57;;;;;;;6.32;4.32;;;31.70;1.00;;;;;;5150290;27;20040;-54
2022/07/02 11:08:40;;;;;;;8.07;4.82;;;31.80;1.00;;;;;;5152692;27;20075;-55
2022/07/02 11:11:06;;;;;;;5.68;4.93;;;31.70;1.00;;;;;;5150255;27;20018;-56
2022/07/02 11:13:44;;;;;;;8.75;5.35;;;31.80;1.00;;;;;;5152846;27;20076;-56
2022/07/02 11:16:44;;;;;;;6.13;5.45;;;32.00;1.00;;;;;;5151616;27;20413;-56
2022/07/02 11:19:22;;;;;;;5.15;4.40;;;32.00;1.00;;;;;;5125218;27;20042;-56
2022/07/02 11:21:49;;;;;;;5.35;4.20;;;32.20;1.00;;;;;;5145411;27;20061;-56
2022/07/02 11:24:20;;;;;;;4.63;4.22;;;32.00;1.00;;;;;;5148286;27;20034;-57
2022/07/02 11:26:46;;;;;;;6.32;4.70;;;32.30;1.00;;;;;;5142744;27;20023;-54
2022/07/02 11:29:13;;;;;;;5.60;4.32;;;32.10;1.00;;;;;;5146452;27;20114;-55
2022/07/02 11:31:42;;;;;;;5.60;4.47;;;32.30;1.00;;;;;;5151425;27;20022;-55
2022/07/02 11:34:08;;;;;;;4.72;4.03;;;32.30;1.00;;;;;;5152801;27;20031;-54
2022/07/02 11:36:37;;;;;;;5.47;4.63;;;32.20;1.00;;;;;;5150504;27;20021;-55
2022/07/02 11:39:18;;;;;;;7.70;4.70;;;32.10;1.00;;;;;;5139448;27;20035;-57
2022/07/02 11:41:45;;;;;;;4.45;4.05;;;32.30;1.00;;;;;;5151265;27;20479;-57
2022/07/02 11:44:20;;;;;;;5.50;4.40;;;32.40;1.00;;;;;;5152777;27;20092;-57
2022/07/02 11:46:54;;;;;;;5.72;4.22;;;32.40;1.00;;;;;;5151621;27;20068;-55
2022/07/02 11:49:24;;;;;;;4.22;3.67;;;32.60;1.00;;;;;;5152615;27;20437;-56
2022/07/02 11:51:51;;;;;;;7.13;4.25;;;32.60;1.00;;;;;;5150396;27;20060;-56
2022/07/02 11:54:17;;;;;;;5.05;4.53;;;32.60;1.00;;;;;;5137880;27;20464;-56
2022/07/02 11:56:45;;;;;;;6.88;4.45;;;32.60;1.00;;;;;;5151204;27;20019;-57
2022/07/02 11:59:13;;;;;;;5.72;4.40;;;32.50;1.00;;;;;;5151382;27;20054;-55
2022/07/02 12:01:40;;;;;;;5.43;4.40;;;32.60;1.00;;;;;;5151401;27;20033;-57
2022/07/02 12:04:12;;;;;;;5.53;3.97;;;32.80;1.00;;;;;;5152568;27;20034;-56
2022/07/02 12:06:48;;;;;;;4.10;3.70;;;32.70;1.00;;;;;;5151560;27;20053;-56
2022/07/02 12:09:22;;;;;;;4.22;3.80;;;32.90;1.00;;;;;;5152488;27;20123;-57
2022/07/02 12:11:49;;;;;;;8.55;3.83;;;33.00;1.00;;;;;;5151289;27;20087;-57
2022/07/02 12:14:16;;;;;;;4.75;3.60;;;33.00;1.00;;;;;;5152380;27;20449;-53
2022/07/02 12:16:45;;;;;;;4.85;3.78;;;33.00;1.00;;;;;;5151315;27;20075;-57
2022/07/02 12:19:13;;;;;;;4.18;3.47;;;33.10;1.00;;;;;;5152547;27;20090;-57
2022/07/02 12:21:49;;;;;;;4.25;3.80;;;33.20;1.00;;;;;;5138485;27;20077;-57
2022/07/02 12:24:28;;;;;;;4.82;3.50;;;33.10;1.00;;;;;;5149197;27;20076;-57
2022/07/02 12:27:01;;;;;;;5.68;3.78;;;33.20;1.00;;;;;;5148038;27;20027;-57
2022/07/02 12:32:16;;;;;;;3.90;3.55;;;33.40;1.00;;;;;;5151177;27;20054;-55
2022/07/02 12:34:43;;;;;;;4.50;4.10;;;33.40;1.00;;;;;;5152403;27;20440;-54
2022/07/02 12:37:30;;;;;;;4.88;4.25;;;33.60;1.00;;;;;;5150926;27;20028;-57
2022/07/02 12:40:17;;;;;;;3.72;3.42;;;33.50;1.00;;;;;;5140414;27;20059;-56
2022/07/02 12:42:55;;;;;;;3.85;3.55;;;33.40;1.00;;;;;;5153886;27;20460;-55
2022/07/02 12:45:33;;;;;;;6.63;3.55;;;33.50;1.00;;;;;;5140533;27;20146;-56
2022/07/02 12:48:13;;;;;;;4.07;3.33;;;33.50;1.00;;;;;;5145943;27;20044;-56
2022/07/02 12:50:41;;;;;;;5.07;3.60;;;33.40;1.00;;;;;;5155770;27;20026;-56
2022/07/02 12:53:14;;;;;;;3.78;3.50;;;33.80;1.00;;;;;;5154337;27;20038;-55
2022/07/02 12:55:42;;;;;;;;;;;33.50;1.00;;;;;;5154891;27;20026;-56
2022/07/02 12:58:12;;;;;;;4.05;3.65;;;33.70;1.00;;;;;;5149797;27;20014;-56
2022/07/02 13:00:40;;;;;;;5.63;3.50;;;33.90;1.00;;;;;;5155385;27;20143;-55
2022/07/02 13:03:07;;;;;;;5.53;3.65;;;33.70;1.00;;;;;;5154036;27;20019;-56
2022/07/02 13:05:38;;;;;;;4.22;3.60;;;33.70;1.00;;;;;;5155286;27;20019;-58
2022/07/02 13:08:04;;;;;;;4.78;3.60;;;33.70;1.00;;;;;;5153858;27;20034;-56
2022/07/02 13:10:30;;;;;;;4.10;3.40;;;33.80;1.00;;;;;;5155177;27;20053;-55